sensor_id;sensor_type;location;lat;lon;timestamp;pressure;altitude;pressure_sealevel;temperature;humidity
80892;BME280;70343;51.530;5.050;2024-01-30T00:00:32;102560.19;;;8.24;100.00
80892;BME280;70343;51.530;5.050;2024-01-30T00:02:57;102555.88;;;8.25;100.00
80892;BME280;70343;51.530;5.050;2024-01-30T00:05:23;102551.56;;;8.24;100.00
80892;BME280;70343;51.530;5.050;2024-01-30T00:07:48;102554.31;;;8.22;100.00
80892;BME280;70343;51.530;5.050;2024-01-30T00:10:14;102556.91;;;8.22;100.00
80892;BME280;70343;51.530;5.050;2024-01-30T00:12:39;102537.75;;;8.23;100.00
80892;BME280;70343;51.530;5.050;2024-01-30T00:15:05;102553.34;;;8.23;100.00
80892;BME280;70343;51.530;5.050;2024-01-30T00:17:33;102547.34;;;8.23;100.00
80892;BME280;70343;51.530;5.050;2024-01-30T00:19:59;102538.41;;;8.16;100.00
80892;BME280;70343;51.530;5.050;2024-01-30T00:22:24;102541.97;;;8.15;100.00
80892;BME280;70343;51.530;5.050;2024-01-30T00:24:50;102539.63;;;8.11;100.00
80892;BME280;70343;51.530;5.050;2024-01-30T00:27:15;102532.94;;;8.09;100.00
80892;BME280;70343;51.530;5.050;2024-01-30T00:29:41;102530.59;;;8.06;100.00
80892;BME280;70343;51.530;5.050;2024-01-30T00:32:07;102532.25;;;8.07;100.00
80892;BME280;70343;51.530;5.050;2024-01-30T00:34:32;102528.41;;;8.01;100.00
80892;BME280;70343;51.530;5.050;2024-01-30T00:36:58;102527.16;;;8.05;100.00
80892;BME280;70343;51.530;5.050;2024-01-30T00:39:23;102523.91;;;8.03;100.00
80892;BME280;70343;51.530;5.050;2024-01-30T00:41:48;102518.00;;;8.01;100.00
80892;BME280;70343;51.530;5.050;2024-01-30T00:44:14;102525.09;;;7.99;100.00
80892;BME280;70343;51.530;5.050;2024-01-30T00:46:40;102521.69;;;7.99;100.00
80892;BME280;70343;51.530;5.050;2024-01-30T00:49:05;102521.53;;;8.00;100.00
80892;BME280;70343;51.530;5.050;2024-01-30T00:51:30;102530.59;;;8.06;100.00
80892;BME280;70343;51.530;5.050;2024-01-30T00:53:56;102525.16;;;8.09;100.00
80892;BME280;70343;51.530;5.050;2024-01-30T00:56:22;102526.78;;;8.10;100.00
80892;BME280;70343;51.530;5.050;2024-01-30T00:58:47;102523.25;;;8.11;100.00
80892;BME280;70343;51.530;5.050;2024-01-30T01:01:12;102521.34;;;8.13;100.00
80892;BME280;70343;51.530;5.050;2024-01-30T01:03:38;102516.25;;;8.11;100.00
80892;BME280;70343;51.530;5.050;2024-01-30T01:06:06;102513.66;;;8.11;100.00
80892;BME280;70343;51.530;5.050;2024-01-30T01:08:31;102517.25;;;8.20;100.00
80892;BME280;70343;51.530;5.050;2024-01-30T01:10:57;102525.31;;;8.17;100.00
80892;BME280;70343;51.530;5.050;2024-01-30T01:13:22;102517.75;;;8.14;100.00
80892;BME280;70343;51.530;5.050;2024-01-30T01:15:47;102522.28;;;8.22;100.00
80892;BME280;70343;51.530;5.050;2024-01-30T01:18:13;102525.88;;;8.21;100.00
80892;BME280;70343;51.530;5.050;2024-01-30T01:20:38;102517.94;;;8.22;100.00
80892;BME280;70343;51.530;5.050;2024-01-30T01:23:04;102526.56;;;8.23;100.00
80892;BME280;70343;51.530;5.050;2024-01-30T01:25:29;102515.09;;;8.25;100.00
80892;BME280;70343;51.530;5.050;2024-01-30T01:27:55;102511.97;;;8.31;100.00
80892;BME280;70343;51.530;5.050;2024-01-30T01:30:20;102507.44;;;8.33;100.00
80892;BME280;70343;51.530;5.050;2024-01-30T01:32:51;102512.94;;;8.30;100.00
80892;BME280;70343;51.530;5.050;2024-01-30T01:35:23;102506.34;;;8.26;100.00
80892;BME280;70343;51.530;5.050;2024-01-30T01:37:54;102510.31;;;8.30;100.00
80892;BME280;70343;51.530;5.050;2024-01-30T01:40:22;102502.25;;;8.33;100.00
80892;BME280;70343;51.530;5.050;2024-01-30T01:42:52;102505.81;;;8.32;100.00
80892;BME280;70343;51.530;5.050;2024-01-30T01:45:18;102496.50;;;8.30;100.00
80892;BME280;70343;51.530;5.050;2024-01-30T01:47:44;102492.38;;;8.27;100.00
80892;BME280;70343;51.530;5.050;2024-01-30T01:50:21;102491.69;;;8.25;100.00
80892;BME280;70343;51.530;5.050;2024-01-30T01:52:47;102492.38;;;8.27;100.00
80892;BME280;70343;51.530;5.050;2024-01-30T01:55:14;102505.81;;;8.32;100.00
80892;BME280;70343;51.530;5.050;2024-01-30T01:57:41;102499.09;;;8.30;100.00
80892;BME280;70343;51.530;5.050;2024-01-30T02:00:09;102509.63;;;8.28;100.00
80892;BME280;70343;51.530;5.050;2024-01-30T02:02:36;102503.03;;;8.24;100.00
80892;BME280;70343;51.530;5.050;2024-01-30T02:05:02;102494.81;;;8.19;100.00
80892;BME280;70343;51.530;5.050;2024-01-30T02:07:28;102497.41;;;8.19;100.00
80892;BME280;70343;51.530;5.050;2024-01-30T02:09:54;102496.16;;;8.13;100.00
80892;BME280;70343;51.530;5.050;2024-01-30T02:12:20;102501.66;;;8.20;100.00
80892;BME280;70343;51.530;5.050;2024-01-30T02:14:46;102493.16;;;8.18;100.00
80892;BME280;70343;51.530;5.050;2024-01-30T02:17:12;102491.78;;;8.14;100.00
80892;BME280;70343;51.530;5.050;2024-01-30T02:19:39;102498.88;;;8.12;100.00
80892;BME280;70343;51.530;5.050;2024-01-30T02:22:04;102501.34;;;8.13;100.00
80892;BME280;70343;51.530;5.050;2024-01-30T02:24:30;102493.13;;;8.08;100.00
80892;BME280;70343;51.530;5.050;2024-01-30T02:26:56;102495.44;;;8.02;100.00
80892;BME280;70343;51.530;5.050;2024-01-30T02:29:21;102487.63;;;8.02;100.00
80892;BME280;70343;51.530;5.050;2024-01-30T02:31:47;102481.88;;;7.98;100.00
80892;BME280;70343;51.530;5.050;2024-01-30T02:34:13;102476.56;;;8.00;100.00
80892;BME280;70343;51.530;5.050;2024-01-30T02:36:42;102467.13;;;7.99;100.00
80892;BME280;70343;51.530;5.050;2024-01-30T02:39:07;102473.97;;;8.00;100.00
80892;BME280;70343;51.530;5.050;2024-01-30T02:41:33;102473.03;;;8.01;100.00
80892;BME280;70343;51.530;5.050;2024-01-30T02:43:58;102471.81;;;8.05;100.00
80892;BME280;70343;51.530;5.050;2024-01-30T02:46:24;102468.25;;;8.06;100.00
80892;BME280;70343;51.530;5.050;2024-01-30T02:48:49;102468.94;;;8.08;100.00
80892;BME280;70343;51.530;5.050;2024-01-30T02:51:16;102468.25;;;8.06;100.00
80892;BME280;70343;51.530;5.050;2024-01-30T02:53:42;102457.59;;;8.09;100.00
80892;BME280;70343;51.530;5.050;2024-01-30T02:56:07;102456.06;;;8.06;100.00
80892;BME280;70343;51.530;5.050;2024-01-30T02:58:38;102463.59;;;8.09;100.00
80892;BME280;70343;51.530;5.050;2024-01-30T03:01:04;102453.63;;;8.05;100.00
80892;BME280;70343;51.530;5.050;2024-01-30T03:03:30;102457.28;;;8.02;100.00
80892;BME280;70343;51.530;5.050;2024-01-30T03:05:55;102462.09;;;8.07;100.00
80892;BME280;70343;51.530;5.050;2024-01-30T03:08:21;102463.06;;;8.16;100.00
80892;BME280;70343;51.530;5.050;2024-01-30T03:10:46;102465.81;;;8.14;100.00
80892;BME280;70343;51.530;5.050;2024-01-30T03:13:12;102464.72;;;8.17;100.00
80892;BME280;70343;51.530;5.050;2024-01-30T03:15:37;102470.06;;;8.15;100.00
80892;BME280;70343;51.530;5.050;2024-01-30T03:18:03;102463.88;;;8.16;100.00
80892;BME280;70343;51.530;5.050;2024-01-30T03:20:31;102463.88;;;8.16;100.00
80892;BME280;70343;51.530;5.050;2024-01-30T03:22:59;102466.34;;;8.18;100.00
80892;BME280;70343;51.530;5.050;2024-01-30T03:25:25;102472.50;;;8.17;100.00
80892;BME280;70343;51.530;5.050;2024-01-30T03:27:51;102471.84;;;8.24;100.00
80892;BME280;70343;51.530;5.050;2024-01-30T03:30:16;102476.78;;;8.27;100.00
80892;BME280;70343;51.530;5.050;2024-01-30T03:32:42;102466.31;;;8.38;100.00
80892;BME280;70343;51.530;5.050;2024-01-30T03:35:08;102470.50;;;8.30;100.00
80892;BME280;70343;51.530;5.050;2024-01-30T03:37:34;102465.31;;;8.30;100.00
80892;BME280;70343;51.530;5.050;2024-01-30T03:39:59;102473.25;;;8.28;100.00
80892;BME280;70343;51.530;5.050;2024-01-30T03:42:25;102468.06;;;8.28;100.00
80892;BME280;70343;51.530;5.050;2024-01-30T03:44:50;102469.25;;;8.24;100.00
80892;BME280;70343;51.530;5.050;2024-01-30T03:47:20;102464.50;;;8.29;100.00
80892;BME280;70343;51.530;5.050;2024-01-30T03:49:46;102463.41;;;8.32;100.00
80892;BME280;70343;51.530;5.050;2024-01-30T03:52:12;102472.28;;;8.39;100.00
80892;BME280;70343;51.530;5.050;2024-01-30T03:54:37;102467.00;;;8.40;100.00
80892;BME280;70343;51.530;5.050;2024-01-30T03:57:03;102455.34;;;8.35;100.00
80892;BME280;70343;51.530;5.050;2024-01-30T03:59:29;102454.38;;;8.36;100.00
80892;BME280;70343;51.530;5.050;2024-01-30T04:01:54;102462.72;;;8.39;100.00
80892;BME280;70343;51.530;5.050;2024-01-30T04:04:20;102446.44;;;8.37;100.00
80892;BME280;70343;51.530;5.050;2024-01-30T04:06:45;102446.72;;;8.34;100.00
80892;BME280;70343;51.530;5.050;2024-01-30T04:09:12;102444.00;;;8.36;100.00
80892;BME280;70343;51.530;5.050;2024-01-30T04:11:39;102444.53;;;8.39;100.00
80892;BME280;70343;51.530;5.050;2024-01-30T04:14:04;102439.09;;;8.42;100.00
80892;BME280;70343;51.530;5.050;2024-01-30T04:16:30;102441.00;;;8.40;100.00
80892;BME280;70343;51.530;5.050;2024-01-30T04:18:56;102433.19;;;8.40;100.00
80892;BME280;70343;51.530;5.050;2024-01-30T04:21:21;102428.13;;;8.39;100.00
80892;BME280;70343;51.530;5.050;2024-01-30T04:23:48;102422.38;;;8.35;100.00
80892;BME280;70343;51.530;5.050;2024-01-30T04:26:14;102426.78;;;8.35;100.00
80892;BME280;70343;51.530;5.050;2024-01-30T04:28:44;102439.06;;;8.33;100.00
80892;BME280;70343;51.530;5.050;2024-01-30T04:31:10;102443.16;;;8.35;100.00
80892;BME280;70343;51.530;5.050;2024-01-30T04:33:35;102442.38;;;8.35;100.00
80892;BME280;70343;51.530;5.050;2024-01-30T04:36:01;102442.38;;;8.44;100.00
80892;BME280;70343;51.530;5.050;2024-01-30T04:38:26;102435.81;;;8.40;100.00
80892;BME280;70343;51.530;5.050;2024-01-30T04:40:52;102437.72;;;8.38;100.00
80892;BME280;70343;51.530;5.050;2024-01-30T04:43:17;102431.97;;;8.44;100.00
80892;BME280;70343;51.530;5.050;2024-01-30T04:45:44;102437.16;;;8.44;100.00
80892;BME280;70343;51.530;5.050;2024-01-30T04:48:09;102438.13;;;8.43;100.00
80892;BME280;70343;51.530;5.050;2024-01-30T04:50:35;102438.81;;;8.45;100.00
80892;BME280;70343;51.530;5.050;2024-01-30T04:53:01;102436.47;;;8.42;100.00
80892;BME280;70343;51.530;5.050;2024-01-30T04:55:27;102425.41;;;8.40;100.00
80892;BME280;70343;51.530;5.050;2024-01-30T04:57:52;102427.84;;;8.42;100.00
80892;BME280;70343;51.530;5.050;2024-01-30T05:00:18;102425.94;;;8.44;100.00
80892;BME280;70343;51.530;5.050;2024-01-30T05:02:43;102429.09;;;8.47;100.00
80892;BME280;70343;51.530;5.050;2024-01-30T05:05:09;102429.78;;;8.49;100.00
80892;BME280;70343;51.530;5.050;2024-01-30T05:07:34;102432.22;;;8.51;100.00
80892;BME280;70343;51.530;5.050;2024-01-30T05:10:00;102431.16;;;8.53;100.00
80892;BME280;70343;51.530;5.050;2024-01-30T05:12:26;102431.84;;;8.55;100.00
80892;BME280;70343;51.530;5.050;2024-01-30T05:14:51;102431.16;;;8.53;100.00
80892;BME280;70343;51.530;5.050;2024-01-30T05:17:17;102431.97;;;8.54;100.00
80892;BME280;70343;51.530;5.050;2024-01-30T05:19:43;102432.53;;;8.57;100.00
80892;BME280;70343;51.530;5.050;2024-01-30T05:22:09;102428.69;;;8.61;100.00
80892;BME280;70343;51.530;5.050;2024-01-30T05:24:35;102416.91;;;8.57;100.00
80892;BME280;70343;51.530;5.050;2024-01-30T05:27:01;102421.16;;;8.58;100.00
80892;BME280;70343;51.530;5.050;2024-01-30T05:29:27;102418.44;;;8.60;100.00
80892;BME280;70343;51.530;5.050;2024-01-30T05:31:53;102418.00;;;8.64;100.00
80892;BME280;70343;51.530;5.050;2024-01-30T05:34:18;102416.63;;;8.60;100.00
80892;BME280;70343;51.530;5.050;2024-01-30T05:36:44;102415.94;;;8.58;100.00
80892;BME280;70343;51.530;5.050;2024-01-30T05:39:09;102416.09;;;8.57;100.00
80892;BME280;70343;51.530;5.050;2024-01-30T05:41:35;102421.16;;;8.58;100.00
80892;BME280;70343;51.530;5.050;2024-01-30T05:44:01;102413.91;;;8.62;100.00
80892;BME280;70343;51.530;5.050;2024-01-30T05:46:27;102417.47;;;8.61;100.00
80892;BME280;70343;51.530;5.050;2024-01-30T05:48:52;102418.81;;;8.65;100.00
80892;BME280;70343;51.530;5.050;2024-01-30T05:51:18;102410.88;;;8.66;100.00
80892;BME280;70343;51.530;5.050;2024-01-30T05:53:43;102419.66;;;8.65;100.00
80892;BME280;70343;51.530;5.050;2024-01-30T05:56:09;102423.63;;;8.69;100.00
80892;BME280;70343;51.530;5.050;2024-01-30T05:58:34;102430.59;;;8.69;100.00
80892;BME280;70343;51.530;5.050;2024-01-30T06:01:00;102428.69;;;8.71;100.00
80892;BME280;70343;51.530;5.050;2024-01-30T06:03:26;102427.84;;;8.70;100.00
80892;BME280;70343;51.530;5.050;2024-01-30T06:05:51;102422.94;;;8.67;100.00
80892;BME280;70343;51.530;5.050;2024-01-30T06:08:17;102434.41;;;8.74;100.00
80892;BME280;70343;51.530;5.050;2024-01-30T06:10:43;102436.19;;;8.74;100.00
80892;BME280;70343;51.530;5.050;2024-01-30T06:13:08;102443.31;;;8.72;100.00
80892;BME280;70343;51.530;5.050;2024-01-30T06:15:34;102429.22;;;8.74;100.00
80892;BME280;70343;51.530;5.050;2024-01-30T06:17:59;102430.59;;;8.78;100.00
80892;BME280;70343;51.530;5.050;2024-01-30T06:20:25;102439.22;;;8.69;100.00
80892;BME280;70343;51.530;5.050;2024-01-30T06:22:50;102440.03;;;8.70;100.00
80892;BME280;70343;51.530;5.050;2024-01-30T06:25:16;102434.97;;;8.68;100.00
80892;BME280;70343;51.530;5.050;2024-01-30T06:27:42;102439.38;;;8.68;100.00
80892;BME280;70343;51.530;5.050;2024-01-30T06:30:08;102443.47;;;8.70;100.00
80892;BME280;70343;51.530;5.050;2024-01-30T06:32:35;102446.50;;;8.66;100.00
80892;BME280;70343;51.530;5.050;2024-01-30T06:35:01;102444.56;;;8.68;100.00
80892;BME280;70343;51.530;5.050;2024-01-30T06:37:27;102446.34;;;8.67;100.00
80892;BME280;70343;51.530;5.050;2024-01-30T06:39:52;102456.59;;;8.69;100.00
80892;BME280;70343;51.530;5.050;2024-01-30T06:42:18;102461.66;;;8.70;100.00
80892;BME280;70343;51.530;5.050;2024-01-30T06:44:44;102462.63;;;8.69;100.00
80892;BME280;70343;51.530;5.050;2024-01-30T06:47:10;102459.59;;;8.64;100.00
80892;BME280;70343;51.530;5.050;2024-01-30T06:49:35;102479.47;;;8.65;100.00
80892;BME280;70343;51.530;5.050;2024-01-30T06:52:05;102476.56;;;8.68;100.00
80892;BME280;70343;51.530;5.050;2024-01-30T06:54:30;102473.84;;;8.70;100.00
80892;BME280;70343;51.530;5.050;2024-01-30T06:56:56;102482.59;;;8.69;100.00
80892;BME280;70343;51.530;5.050;2024-01-30T06:59:22;102478.78;;;8.73;100.00
80892;BME280;70343;51.530;5.050;2024-01-30T07:01:47;102480.69;;;8.71;100.00
80892;BME280;70343;51.530;5.050;2024-01-30T07:04:13;102479.19;;;8.78;100.00
80892;BME280;70343;51.530;5.050;2024-01-30T07:06:38;102488.09;;;8.75;100.00
80892;BME280;70343;51.530;5.050;2024-01-30T07:09:04;102490.25;;;8.70;100.00
80892;BME280;70343;51.530;5.050;2024-01-30T07:11:30;102484.22;;;8.70;100.00
80892;BME280;70343;51.530;5.050;2024-01-30T07:13:56;102493.84;;;8.69;100.00
80892;BME280;70343;51.530;5.050;2024-01-30T07:16:21;102492.63;;;8.73;100.00
80892;BME280;70343;51.530;5.050;2024-01-30T07:18:47;102502.31;;;8.71;100.00
80892;BME280;70343;51.530;5.050;2024-01-30T07:21:13;102493.84;;;8.69;100.00
80892;BME280;70343;51.530;5.050;2024-01-30T07:23:38;102506.41;;;8.74;100.00
80892;BME280;70343;51.530;5.050;2024-01-30T07:26:07;102503.00;;;8.73;100.00
80892;BME280;70343;51.530;5.050;2024-01-30T07:28:34;102514.91;;;8.76;100.00
80892;BME280;70343;51.530;5.050;2024-01-30T07:31:00;102513.00;;;8.78;100.00
80892;BME280;70343;51.530;5.050;2024-01-30T07:33:26;102514.78;;;8.77;100.00
80892;BME280;70343;51.530;5.050;2024-01-30T07:35:54;102523.13;;;8.81;100.00
80892;BME280;70343;51.530;5.050;2024-01-30T07:38:20;102523.00;;;8.82;100.00
80892;BME280;70343;51.530;5.050;2024-01-30T07:40:46;102526.41;;;8.83;100.00
80892;BME280;70343;51.530;5.050;2024-01-30T07:43:11;102516.41;;;8.78;100.00
80892;BME280;70343;51.530;5.050;2024-01-30T07:45:37;102527.66;;;8.88;100.00
80892;BME280;70343;51.530;5.050;2024-01-30T07:48:05;102528.06;;;8.93;100.00
80892;BME280;70343;51.530;5.050;2024-01-30T07:50:31;102521.50;;;8.99;100.00
80892;BME280;70343;51.530;5.050;2024-01-30T07:52:56;102528.88;;;9.04;100.00
80892;BME280;70343;51.530;5.050;2024-01-30T07:55:22;102521.50;;;9.09;100.00
80892;BME280;70343;51.530;5.050;2024-01-30T07:57:54;102529.31;;;9.09;100.00
80892;BME280;70343;51.530;5.050;2024-01-30T08:00:20;102533.97;;;9.15;100.00
80892;BME280;70343;51.530;5.050;2024-01-30T08:02:46;102530.00;;;9.11;100.00
80892;BME280;70343;51.530;5.050;2024-01-30T08:05:12;102530.25;;;9.17;100.00
80892;BME280;70343;51.530;5.050;2024-01-30T08:07:37;102542.31;;;9.18;100.00
80892;BME280;70343;51.530;5.050;2024-01-30T08:10:03;102534.34;;;9.20;100.00
80892;BME280;70343;51.530;5.050;2024-01-30T08:12:29;102540.38;;;9.30;100.00
80892;BME280;70343;51.530;5.050;2024-01-30T08:14:54;102538.69;;;9.38;100.00
80892;BME280;70343;51.530;5.050;2024-01-30T08:17:19;102545.84;;;9.36;100.00
80892;BME280;70343;51.530;5.050;2024-01-30T08:19:45;102542.81;;;9.41;100.00
80892;BME280;70343;51.530;5.050;2024-01-30T08:22:12;102537.63;;;9.41;100.00
80892;BME280;70343;51.530;5.050;2024-01-30T08:24:37;102531.56;;;9.50;100.00
80892;BME280;70343;51.530;5.050;2024-01-30T08:27:03;102531.00;;;9.56;100.00
80892;BME280;70343;51.530;5.050;2024-01-30T08:29:30;102535.41;;;9.55;100.00
80892;BME280;70343;51.530;5.050;2024-01-30T08:31:55;102532.91;;;9.63;100.00
80892;BME280;70343;51.530;5.050;2024-01-30T08:34:21;102525.19;;;9.71;100.00
80892;BME280;70343;51.530;5.050;2024-01-30T08:36:46;102527.69;;;9.73;100.00
80892;BME280;70343;51.530;5.050;2024-01-30T08:39:13;102530.66;;;9.78;100.00
80892;BME280;70343;51.530;5.050;2024-01-30T08:41:38;102532.59;;;9.76;100.00
80892;BME280;70343;51.530;5.050;2024-01-30T08:44:04;102529.41;;;9.82;100.00
80892;BME280;70343;51.530;5.050;2024-01-30T08:46:29;102536.00;;;9.86;100.00
80892;BME280;70343;51.530;5.050;2024-01-30T08:48:56;102533.66;;;9.93;100.00
80892;BME280;70343;51.530;5.050;2024-01-30T08:51:21;102540.63;;;9.92;100.00
80892;BME280;70343;51.530;5.050;2024-01-30T08:53:47;102540.50;;;9.94;100.00
80892;BME280;70343;51.530;5.050;2024-01-30T08:56:12;102541.16;;;9.96;100.00
80892;BME280;70343;51.530;5.050;2024-01-30T08:58:38;102536.06;;;10.04;100.00
80892;BME280;70343;51.530;5.050;2024-01-30T09:01:05;102546.06;;;10.08;100.00
80892;BME280;70343;51.530;5.050;2024-01-30T09:03:31;102550.59;;;10.06;100.00
80892;BME280;70343;51.530;5.050;2024-01-30T09:05:57;102559.91;;;10.09;100.00
80892;BME280;70343;51.530;5.050;2024-01-30T09:08:22;102563.09;;;10.12;100.00
80892;BME280;70343;51.530;5.050;2024-01-30T09:10:48;102560.72;;;10.19;100.00
80892;BME280;70343;51.530;5.050;2024-01-30T09:13:15;102561.13;;;10.14;100.00
80892;BME280;70343;51.530;5.050;2024-01-30T09:15:42;102562.91;;;10.23;100.00
80892;BME280;70343;51.530;5.050;2024-01-30T09:18:07;102570.72;;;10.23;100.00
80892;BME280;70343;51.530;5.050;2024-01-30T09:20:33;102566.44;;;10.22;100.00
80892;BME280;70343;51.530;5.050;2024-01-30T09:22:58;102573.59;;;10.20;100.00
80892;BME280;70343;51.530;5.050;2024-01-30T09:25:24;102579.38;;;10.14;100.00
80892;BME280;70343;51.530;5.050;2024-01-30T09:27:49;102572.06;;;10.27;100.00
80892;BME280;70343;51.530;5.050;2024-01-30T09:30:15;102577.66;;;10.32;100.00
80892;BME280;70343;51.530;5.050;2024-01-30T09:32:40;102577.44;;;10.26;100.00
80892;BME280;70343;51.530;5.050;2024-01-30T09:35:06;102574.72;;;10.18;100.00
80892;BME280;70343;51.530;5.050;2024-01-30T09:37:32;102569.50;;;10.18;100.00
80892;BME280;70343;51.530;5.050;2024-01-30T09:39:57;102565.41;;;10.15;100.00
80892;BME280;70343;51.530;5.050;2024-01-30T09:42:36;102573.38;;;10.14;100.00
80892;BME280;70343;51.530;5.050;2024-01-30T09:45:05;102565.19;;;10.26;100.00
80892;BME280;70343;51.530;5.050;2024-01-30T09:47:41;102577.97;;;10.29;100.00
80892;BME280;70343;51.530;5.050;2024-01-30T09:50:11;102570.81;;;10.31;100.00
80892;BME280;70343;51.530;5.050;2024-01-30T09:52:37;102584.81;;;10.30;100.00
80892;BME280;70343;51.530;5.050;2024-01-30T09:55:04;102580.69;;;10.37;100.00
80892;BME280;70343;51.530;5.050;2024-01-30T09:57:29;102582.81;;;10.42;100.00
80892;BME280;70343;51.530;5.050;2024-01-30T09:59:55;102583.09;;;10.48;100.00
80892;BME280;70343;51.530;5.050;2024-01-30T10:02:21;102588.97;;;10.50;100.00
80892;BME280;70343;51.530;5.050;2024-01-30T10:04:51;102589.34;;;10.55;100.00
80892;BME280;70343;51.530;5.050;2024-01-30T10:07:20;102599.44;;;10.68;100.00
80892;BME280;70343;51.530;5.050;2024-01-30T10:09:46;102605.19;;;10.71;100.00
80892;BME280;70343;51.530;5.050;2024-01-30T10:12:12;102596.00;;;10.67;100.00
80892;BME280;70343;51.530;5.050;2024-01-30T10:14:40;102595.06;;;10.68;100.00
80892;BME280;70343;51.530;5.050;2024-01-30T10:17:08;102596.63;;;10.79;100.00
80892;BME280;70343;51.530;5.050;2024-01-30T10:19:33;102609.91;;;10.86;100.00
80892;BME280;70343;51.530;5.050;2024-01-30T10:22:03;102615.22;;;10.94;100.00
80892;BME280;70343;51.530;5.050;2024-01-30T10:24:28;102609.69;;;10.97;100.00
80892;BME280;70343;51.530;5.050;2024-01-30T10:26:57;102611.72;;;11.03;100.00
80892;BME280;70343;51.530;5.050;2024-01-30T10:29:22;102601.66;;;11.08;100.00
80892;BME280;70343;51.530;5.050;2024-01-30T10:32:01;102611.56;;;11.04;100.00
80892;BME280;70343;51.530;5.050;2024-01-30T10:34:27;102629.41;;;11.09;100.00
80892;BME280;70343;51.530;5.050;2024-01-30T10:37:10;102609.84;;;11.13;100.00
80892;BME280;70343;51.530;5.050;2024-01-30T10:39:42;102611.19;;;11.17;100.00
80892;BME280;70343;51.530;5.050;2024-01-30T10:42:12;102621.47;;;11.18;100.00
80892;BME280;70343;51.530;5.050;2024-01-30T10:47:29;102613.50;;;11.37;100.00
80892;BME280;70343;51.530;5.050;2024-01-30T10:49:56;102610.09;;;11.37;100.00
80892;BME280;70343;51.530;5.050;2024-01-30T10:52:23;102619.84;;;11.52;100.00
80892;BME280;70343;51.530;5.050;2024-01-30T10:54:51;102612.44;;;11.66;100.00
80892;BME280;70343;51.530;5.050;2024-01-30T10:57:17;102612.66;;;11.72;100.00
80892;BME280;70343;51.530;5.050;2024-01-30T10:59:43;102617.94;;;11.80;100.00
80892;BME280;70343;51.530;5.050;2024-01-30T11:02:10;102617.56;;;11.75;100.00
80892;BME280;70343;51.530;5.050;2024-01-30T11:04:41;102623.41;;;11.69;100.00
80892;BME280;70343;51.530;5.050;2024-01-30T11:07:17;102621.78;;;11.68;100.00
80892;BME280;70343;51.530;5.050;2024-01-30T11:09:53;102610.34;;;11.69;100.00
80892;BME280;70343;51.530;5.050;2024-01-30T11:12:23;102614.97;;;11.75;100.00
80892;BME280;70343;51.530;5.050;2024-01-30T11:14:50;102611.38;;;11.76;100.00
80892;BME280;70343;51.530;5.050;2024-01-30T11:17:15;102599.56;;;11.90;100.00
80892;BME280;70343;51.530;5.050;2024-01-30T11:19:41;102610.97;;;11.89;100.00
80892;BME280;70343;51.530;5.050;2024-01-30T11:22:07;102607.72;;;11.69;100.00
80892;BME280;70343;51.530;5.050;2024-01-30T11:24:40;102605.94;;;11.52;100.00
80892;BME280;70343;51.530;5.050;2024-01-30T11:27:09;102604.34;;;11.59;100.00
80892;BME280;70343;51.530;5.050;2024-01-30T11:29:37;102616.59;;;11.76;100.00
80892;BME280;70343;51.530;5.050;2024-01-30T11:32:03;102629.75;;;11.67;100.00
80892;BME280;70343;51.530;5.050;2024-01-30T11:34:28;102607.91;;;11.50;100.00
80892;BME280;70343;51.530;5.050;2024-01-30T11:36:59;102610.00;;;11.46;100.00
80892;BME280;70343;51.530;5.050;2024-01-30T11:39:31;102628.06;;;11.40;100.00
80892;BME280;70343;51.530;5.050;2024-01-30T11:41:57;102631.50;;;11.40;100.00
80892;BME280;70343;51.530;5.050;2024-01-30T11:44:23;102630.31;;;11.35;100.00
80892;BME280;70343;51.530;5.050;2024-01-30T11:46:50;102631.69;;;11.29;100.00
80892;BME280;70343;51.530;5.050;2024-01-30T11:49:16;102632.84;;;11.27;100.00
80892;BME280;70343;51.530;5.050;2024-01-30T11:51:43;102635.06;;;11.22;100.00
80892;BME280;70343;51.530;5.050;2024-01-30T11:54:10;102644.22;;;11.43;100.00
80892;BME280;70343;51.530;5.050;2024-01-30T11:56:37;102633.19;;;11.67;100.00
80892;BME280;70343;51.530;5.050;2024-01-30T11:59:02;102632.56;;;11.91;100.00
80892;BME280;70343;51.530;5.050;2024-01-30T12:01:28;102633.31;;;12.09;100.00
80892;BME280;70343;51.530;5.050;2024-01-30T12:03:53;102639.19;;;12.36;100.00
80892;BME280;70343;51.530;5.050;2024-01-30T12:06:18;102635.47;;;12.47;96.17
80892;BME280;70343;51.530;5.050;2024-01-30T12:09:01;102636.91;;;12.75;95.29
80892;BME280;70343;51.530;5.050;2024-01-30T12:11:29;102649.94;;;13.17;90.98
80892;BME280;70343;51.530;5.050;2024-01-30T12:13:55;102652.25;;;13.20;91.07
80892;BME280;70343;51.530;5.050;2024-01-30T12:16:21;102671.59;;;13.43;92.29
80892;BME280;70343;51.530;5.050;2024-01-30T12:18:47;102665.00;;;13.23;87.61
80892;BME280;70343;51.530;5.050;2024-01-30T12:21:16;102656.06;;;12.92;89.24
80892;BME280;70343;51.530;5.050;2024-01-30T12:23:42;102670.91;;;12.75;88.67
80892;BME280;70343;51.530;5.050;2024-01-30T12:26:08;102666.81;;;12.05;89.86
80892;BME280;70343;51.530;5.050;2024-01-30T12:28:33;102676.28;;;12.06;93.79
80892;BME280;70343;51.530;5.050;2024-01-30T12:31:03;102674.38;;;11.91;96.08
80892;BME280;70343;51.530;5.050;2024-01-30T12:33:29;102670.53;;;11.77;97.87
80892;BME280;70343;51.530;5.050;2024-01-30T12:35:56;102674.41;;;11.73;98.23
80892;BME280;70343;51.530;5.050;2024-01-30T12:38:23;102678.19;;;11.61;98.20
80892;BME280;70343;51.530;5.050;2024-01-30T12:40:53;102672.28;;;11.59;98.81
80892;BME280;70343;51.530;5.050;2024-01-30T12:43:19;102680.44;;;11.56;98.01
80892;BME280;70343;51.530;5.050;2024-01-30T12:45:44;102684.00;;;11.55;97.88